Time;durP1;ratioP1;P1;durP2;ratioP2;P2;SDS_P1;SDS_P2;PMS_P1;PMS_P2;Temp;Humidity;BMP_temperature;BMP_pressure;BME280_temperature;BME280_humidity;BME280_pressure;Samples;Min_cycle;Max_cycle;Signal;HPM_P1;HPM_P2
2022/08/30 00:03:02;;;;;;;;;;;17.10;99.90;;;;;;5094603;28;20298;-63
2022/08/30 00:05:29;;;;;;;;;;;17.10;99.90;;;;;;5094775;28;19912;-63
2022/08/30 00:07:56;;;;;;;;;;;17.10;99.90;;;;;;5094667;28;19962;-63
2022/08/30 00:10:21;;;;;;;;;;;17.10;99.90;;;;;;5094950;28;19912;-63
2022/08/30 00:12:47;;;;;;;;;;;17.00;99.90;;;;;;5094896;28;19908;-63
2022/08/30 00:15:13;;;;;;;;;;;17.00;99.90;;;;;;5094474;28;19967;-63
2022/08/30 00:17:38;;;;;;;;;;;17.10;99.90;;;;;;5094554;28;20286;-63
2022/08/30 00:20:06;;;;;;;;;;;17.00;99.90;;;;;;5094733;28;19908;-63
2022/08/30 00:22:31;;;;;;;;;;;17.00;99.90;;;;;;5094408;28;19919;-63
2022/08/30 00:24:59;;;;;;;;;;;17.00;99.90;;;;;;5094169;28;19908;-63
2022/08/30 00:27:26;;;;;;;;;;;17.00;99.90;;;;;;5094657;28;19909;-63
2022/08/30 00:29:52;;;;;;;;;;;17.10;99.90;;;;;;5094594;28;19912;-63
2022/08/30 00:32:20;;;;;;;;;;;17.00;99.90;;;;;;5094584;28;19954;-63
2022/08/30 00:34:46;;;;;;;;;;;17.00;99.90;;;;;;5094447;28;20286;-63
2022/08/30 00:37:12;;;;;;;;;;;16.90;99.90;;;;;;5094203;28;19912;-63
2022/08/30 00:39:37;;;;;;;;;;;16.80;99.90;;;;;;5094487;28;19908;-63
2022/08/30 00:42:03;;;;;;;;;;;16.80;99.90;;;;;;5094143;28;20427;-63
2022/08/30 00:44:29;;;;;;;;;;;16.70;99.90;;;;;;5094059;28;19919;-63
2022/08/30 00:46:54;;;;;;;;;;;16.70;99.90;;;;;;5094318;28;19990;-63
2022/08/30 00:49:20;;;;;;;;;;;16.70;99.90;;;;;;5094318;28;19953;-63
2022/08/30 00:51:45;;;;;;;;;;;16.60;99.90;;;;;;5093989;28;20281;-63
2022/08/30 00:54:11;;;;;;;;;;;16.60;99.90;;;;;;5094217;28;19909;-63
2022/08/30 00:56:36;;;;;;;;;;;16.50;99.90;;;;;;5094099;28;20050;-63
2022/08/30 00:59:04;;;;;;;;;;;16.50;99.90;;;;;;5094166;28;20373;-63
2022/08/30 01:01:31;;;;;;;;;;;16.40;99.90;;;;;;5094151;28;19908;-63
2022/08/30 01:03:57;;;;;;;;;;;16.30;99.90;;;;;;5093832;28;19908;-63
2022/08/30 01:06:24;;;;;;;;;;;16.30;99.90;;;;;;5093888;28;19957;-63
2022/08/30 01:08:50;;;;;;;;;;;16.30;99.90;;;;;;5094041;28;20362;-63
2022/08/30 01:11:17;;;;;;;;;;;16.20;99.90;;;;;;5093814;28;19957;-63
2022/08/30 01:13:44;;;;;;;;;;;16.20;99.90;;;;;;5093990;28;19908;-63
2022/08/30 01:16:09;;;;;;;;;;;16.20;99.90;;;;;;5075359;28;20349;-63
2022/08/30 01:18:35;;;;;;;;;;;16.10;99.90;;;;;;5093680;28;19947;-63
2022/08/30 01:21:09;;;;;;;;;;;16.10;99.90;;;;;;5093943;28;19908;-63
2022/08/30 01:23:36;;;;;;;;;;;16.10;99.90;;;;;;5093928;28;19957;-63
2022/08/30 01:26:03;;;;;;;;;;;16.10;99.90;;;;;;5093584;28;19912;-63
2022/08/30 01:28:29;;;;;;;;;;;16.10;99.90;;;;;;5093588;28;19920;-63
2022/08/30 01:30:55;;;;;;;;;;;16.10;99.90;;;;;;5093857;28;19915;-63
2022/08/30 01:33:21;;;;;;;;;;;16.10;99.90;;;;;;5093792;28;20007;-63
2022/08/30 01:35:49;;;;;;;;;;;16.00;99.90;;;;;;5093439;28;20046;-63
2022/08/30 01:38:16;;;;;;;;;;;16.00;99.90;;;;;;5097363;28;19914;-63
2022/08/30 01:40:41;;;;;;;;;;;16.00;99.90;;;;;;5097604;28;19912;-63
2022/08/30 01:43:08;;;;;;;;;;;15.90;99.90;;;;;;5097527;28;20011;-63
2022/08/30 01:45:34;;;;;;;;;;;15.80;99.90;;;;;;5097485;28;19908;-63
2022/08/30 01:47:59;;;;;;;;;;;15.80;99.90;;;;;;5097708;28;19934;-62
2022/08/30 01:50:25;;;;;;;;;;;15.80;99.90;;;;;;5097635;28;19935;-62
2022/08/30 01:52:51;;;;;;;;;;;15.80;99.90;;;;;;5097395;28;19908;-63
2022/08/30 01:55:16;;;;;;;;;;;15.70;99.90;;;;;;5097469;28;20026;-63
2022/08/30 01:57:41;;;;;;;;;;;15.70;99.90;;;;;;5097392;28;19912;-62
2022/08/30 02:00:08;;;;;;;;;;;15.70;99.90;;;;;;5097460;28;20260;-63
2022/08/30 02:02:34;;;;;;;;;;;15.70;99.90;;;;;;5097162;28;19908;-62
2022/08/30 02:04:59;;;;;;;;;;;15.70;99.90;;;;;;5097401;28;19931;-63
2022/08/30 02:07:25;;;;;;;;;;;15.70;99.90;;;;;;5097064;28;19954;-63
2022/08/30 02:09:51;;;;;;;;;;;15.70;99.90;;;;;;5078872;28;19908;-63
2022/08/30 02:12:16;;;;;;;;;;;15.70;99.90;;;;;;5097033;28;19908;-63
2022/08/30 02:14:43;;;;;;;;;;;15.80;99.90;;;;;;5096881;28;19916;-62
2022/08/30 02:17:09;;;;;;;;;;;15.80;99.90;;;;;;5097053;28;20316;-62
2022/08/30 02:19:34;;;;;;;;;;;15.80;99.90;;;;;;5097127;28;20354;-63
2022/08/30 02:22:00;;;;;;;;;;;15.80;99.90;;;;;;5097099;28;19914;-63
2022/08/30 02:24:25;;;;;;;;;;;15.80;99.90;;;;;;5096818;28;19923;-62
2022/08/30 02:26:52;;;;;;;;;;;15.80;99.90;;;;;;5097000;28;19939;-63
2022/08/30 02:29:18;;;;;;;;;;;15.80;99.90;;;;;;5096918;28;19957;-63
2022/08/30 02:31:43;;;;;;;;;;;15.80;99.90;;;;;;5096893;28;19923;-63
2022/08/30 02:34:09;;;;;;;;;;;15.70;99.90;;;;;;5096577;28;19908;-62
2022/08/30 02:36:35;;;;;;;;;;;15.70;99.90;;;;;;5096742;28;19912;-63
2022/08/30 02:39:01;;;;;;;;;;;15.70;99.90;;;;;;5096773;28;19908;-63
2022/08/30 02:41:26;;;;;;;;;;;15.80;99.90;;;;;;5096404;28;20281;-62
2022/08/30 02:43:57;;;;;;;;;;;15.80;99.90;;;;;;5096673;28;19912;-63
2022/08/30 02:46:23;;;;;;;;;;;15.80;99.90;;;;;;5096313;28;19912;-63
2022/08/30 02:48:48;;;;;;;;;;;15.80;99.90;;;;;;5096055;28;19909;-63
2022/08/30 02:51:14;;;;;;;;;;;15.90;99.90;;;;;;5096239;28;19916;-63
2022/08/30 02:53:40;;;;;;;;;;;15.90;99.90;;;;;;5096501;28;19908;-62
2022/08/30 02:56:06;;;;;;;;;;;15.90;99.90;;;;;;5096358;28;20316;-63
2022/08/30 02:58:32;;;;;;;;;;;15.90;99.90;;;;;;5096397;28;19919;-63
2022/08/30 03:00:58;;;;;;;;;;;15.90;99.90;;;;;;5096388;28;19908;-63
2022/08/30 03:03:23;;;;;;;;;;;15.90;99.90;;;;;;5077846;28;19915;-63
2022/08/30 03:05:49;;;;;;;;;;;15.90;99.90;;;;;;5096018;28;19908;-63
2022/08/30 03:08:14;;;;;;;;;;;15.80;99.90;;;;;;5095949;28;19908;-63
2022/08/30 03:10:40;;;;;;;;;;;15.80;99.90;;;;;;5096131;28;19915;-62
2022/08/30 03:13:07;;;;;;;;;;;15.70;99.90;;;;;;5096084;28;19908;-63
2022/08/30 03:15:34;;;;;;;;;;;15.60;99.90;;;;;;5095217;28;19927;-63
2022/08/30 03:18:00;;;;;;;;;;;15.50;99.90;;;;;;5095965;28;19912;-63
2022/08/30 03:20:25;;;;;;;;;;;15.50;99.90;;;;;;5095946;28;19914;-62
2022/08/30 03:22:51;;;;;;;;;;;15.40;99.90;;;;;;5095988;28;19954;-63
2022/08/30 03:25:16;;;;;;;;;;;15.40;99.90;;;;;;5095508;28;19909;-63
2022/08/30 03:27:42;;;;;;;;;;;15.40;99.90;;;;;;5095818;28;19912;-63
2022/08/30 03:30:08;;;;;;;;;;;15.30;99.90;;;;;;5095514;28;19957;-63
2022/08/30 03:32:34;;;;;;;;;;;15.30;99.90;;;;;;5095657;28;19933;-63
2022/08/30 03:34:59;;;;;;;;;;;15.30;99.90;;;;;;5095605;28;19912;-63
2022/08/30 03:37:26;;;;;;;;;;;15.20;99.90;;;;;;5077243;28;19908;-63
2022/08/30 03:39:52;;;;;;;;;;;15.10;99.90;;;;;;5095591;28;19908;-63
2022/08/30 03:42:17;;;;;;;;;;;15.10;99.90;;;;;;5077030;28;19908;-63
2022/08/30 03:44:43;;;;;;;;;;;15.10;99.90;;;;;;5095447;28;19908;-63
2022/08/30 03:47:08;;;;;;;;;;;15.10;99.90;;;;;;5077061;28;20259;-63
2022/08/30 03:49:34;;;;;;;;;;;15.00;99.90;;;;;;5095337;28;19908;-64
2022/08/30 03:52:00;;;;;;;;;;;15.00;99.90;;;;;;5095376;28;19909;-63
2022/08/30 03:54:25;;;;;;;;;;;15.00;99.90;;;;;;5095264;28;20290;-63
2022/08/30 03:56:51;;;;;;;;;;;15.00;99.90;;;;;;5095247;28;19912;-63
2022/08/30 03:59:16;;;;;;;;;;;15.00;99.90;;;;;;5094438;28;20355;-64
2022/08/30 04:01:44;;;;;;;;;;;15.00;99.90;;;;;;5094850;28;19912;-63
2022/08/30 04:04:10;;;;;;;;;;;15.00;99.90;;;;;;5076734;28;20025;-63
2022/08/30 04:06:35;;;;;;;;;;;15.00;99.90;;;;;;5095035;28;19962;-63
2022/08/30 04:09:01;;;;;;;;;;;15.00;99.90;;;;;;5094728;28;20360;-63
2022/08/30 04:11:27;;;;;;;;;;;15.00;99.90;;;;;;5094962;28;20033;-64
2022/08/30 04:13:54;;;;;;;;;;;14.90;99.90;;;;;;5076509;28;19958;-63
2022/08/30 04:16:20;;;;;;;;;;;14.90;99.90;;;;;;5094393;28;19920;-64
2022/08/30 04:18:46;;;;;;;;;;;14.90;99.90;;;;;;5094787;28;19908;-63
2022/08/30 04:21:11;;;;;;;;;;;14.90;99.90;;;;;;5094801;28;19918;-64
2022/08/30 04:23:37;;;;;;;;;;;14.80;99.90;;;;;;5094724;28;19951;-63
2022/08/30 04:26:02;;;;;;;;;;;14.80;99.90;;;;;;5094705;28;19945;-63
2022/08/30 04:28:28;;;;;;;;;;;14.70;99.90;;;;;;5094391;28;19912;-64
2022/08/30 04:30:53;;;;;;;;;;;14.70;99.90;;;;;;5094306;28;19908;-64
2022/08/30 04:33:19;;;;;;;;;;;14.60;99.90;;;;;;5076132;28;20389;-64
2022/08/30 04:35:46;;;;;;;;;;;14.60;99.90;;;;;;5076038;28;19959;-63
2022/08/30 04:38:13;;;;;;;;;;;14.50;99.90;;;;;;5076036;28;19908;-63
2022/08/30 04:40:40;;;;;;;;;;;14.50;99.90;;;;;;5094163;28;19908;-63
2022/08/30 04:43:06;;;;;;;;;;;14.60;99.90;;;;;;5094060;28;19956;-64
2022/08/30 04:45:31;;;;;;;;;;;14.70;99.90;;;;;;5094096;28;19919;-63
2022/08/30 04:47:57;;;;;;;;;;;14.70;99.90;;;;;;5094302;28;19908;-63
2022/08/30 04:50:22;;;;;;;;;;;14.70;99.90;;;;;;5093974;28;20354;-62
2022/08/30 04:52:48;;;;;;;;;;;14.70;99.90;;;;;;5094264;28;19912;-63
2022/08/30 04:55:13;;;;;;;;;;;14.60;99.90;;;;;;5094157;28;19959;-63
2022/08/30 04:57:39;;;;;;;;;;;14.60;99.90;;;;;;5094208;28;19908;-63
2022/08/30 05:00:06;;;;;;;;;;;14.60;99.90;;;;;;5094149;28;19908;-63
2022/08/30 05:02:32;;;;;;;;;;;14.70;99.90;;;;;;5094130;28;19998;-63
2022/08/30 05:07:42;;;;;;;;;;;14.70;99.90;;;;;;5093548;28;19919;-63
2022/08/30 05:10:08;;;;;;;;;;;14.80;99.90;;;;;;5093586;28;20322;-63
2022/08/30 05:12:33;;;;;;;;;;;14.80;99.90;;;;;;5093715;28;19915;-63
2022/08/30 05:14:59;;;;;;;;;;;14.90;99.90;;;;;;5072118;28;19920;-63
2022/08/30 05:17:24;;;;;;;;;;;14.90;99.90;;;;;;5073496;28;19948;-63
2022/08/30 05:19:50;;;;;;;;;;;15.00;99.90;;;;;;5073442;28;19966;-63
2022/08/30 05:22:15;;;;;;;;;;;15.00;99.90;;;;;;5073402;28;20275;-63
2022/08/30 05:24:41;;;;;;;;;;;15.00;99.90;;;;;;5073374;28;19909;-63
2022/08/30 05:27:07;;;;;;;;;;;15.10;99.90;;;;;;5073647;28;19909;-63
2022/08/30 05:29:32;;;;;;;;;;;15.20;99.90;;;;;;5106268;28;20317;-63
2022/08/30 05:31:58;;;;;;;;;;;15.20;99.90;;;;;;5073669;28;19959;-63
2022/08/30 05:34:24;;;;;;;;;;;15.30;99.90;;;;;;5073286;28;19908;-63
2022/08/30 05:36:49;;;;;;;;;;;15.40;99.90;;;;;;5071972;28;19919;-63
2022/08/30 05:39:15;;;;;;;;;;;15.50;99.90;;;;;;5073602;28;19944;-63
2022/08/30 05:41:40;;;;;;;;;;;15.60;99.90;;;;;;5073264;28;19916;-63
2022/08/30 05:44:07;;;;;;;;;;;15.70;99.90;;;;;;5073193;28;19978;-63
2022/08/30 05:46:33;;;;;;;;;;;16.10;99.90;;;;;;5073465;28;19913;-63
2022/08/30 05:49:00;;;;;;;;;;;16.50;99.90;;;;;;5073442;28;19973;-63
2022/08/30 05:51:28;;;;;;;;;;;16.80;99.90;;;;;;5071975;28;19912;-63
2022/08/30 05:53:54;;;;;;;;;;;17.40;99.90;;;;;;5073410;28;20367;-63
2022/08/30 05:56:22;;;;;;;;;;;18.80;99.90;;;;;;5073190;28;19981;-64
2022/08/30 05:58:48;;;;;;;;;;;20.50;99.90;;;;;;5073370;28;19912;-64
2022/08/30 06:01:30;;;;;;;;;;;21.80;99.90;;;;;;5105693;28;20371;-64
2022/08/30 06:03:57;;;;;;;;;;;22.40;99.90;;;;;;5102674;28;19912;-65
2022/08/30 06:06:23;;;;;;;;;;;23.30;99.90;;;;;;5065283;28;19916;-64
2022/08/30 06:08:49;;;;;;;;;;;23.30;99.90;;;;;;5071835;28;19912;-64
2022/08/30 06:11:15;;;;;;;;;;;23.80;99.90;;;;;;5067738;28;19909;-64
2022/08/30 06:13:41;;;;;;;;;;;23.70;99.90;;;;;;5066537;28;20378;-64
2022/08/30 06:16:06;;;;;;;;;;;23.00;99.90;;;;;;5082773;28;19927;-63
2022/08/30 06:18:32;;;;;;;;;;;23.80;99.90;;;;;;5088688;28;20010;-64
2022/08/30 06:20:57;;;;;;;;;;;24.00;99.90;;;;;;5073487;28;19912;-64
2022/08/30 06:23:23;;;;;;;;;;;24.40;99.90;;;;;;5093771;28;19934;-64
2022/08/30 06:25:49;;;;;;;;;;;23.90;99.90;;;;;;5092935;28;19922;-64
2022/08/30 06:28:15;;;;;;;;;;;24.60;99.90;;;;;;5090850;28;20369;-63
2022/08/30 06:30:41;;;;;;;;;;;25.60;99.90;;;;;;5078176;28;19908;-64
2022/08/30 06:33:07;;;;;;;;;;;26.30;99.90;;;;;;5096052;28;19908;-64
2022/08/30 06:35:32;;;;;;;;;;;26.30;99.90;;;;;;5096047;28;19924;-64
2022/08/30 06:37:58;;;;;;;;;;;26.20;99.90;;;;;;5096662;28;19961;-63
2022/08/30 06:40:24;;;;;;;;;;;25.50;99.90;;;;;;5096256;28;19908;-64
2022/08/30 06:42:50;;;;;;;;;;;25.50;99.90;;;;;;5082890;28;19938;-64
2022/08/30 06:45:16;;;;;;;;;;;25.30;99.90;;;;;;5081703;28;19957;-63
2022/08/30 06:47:42;;;;;;;;;;;25.60;99.90;;;;;;5085310;28;19923;-63
2022/08/30 06:50:08;;;;;;;;;;;25.50;99.90;;;;;;5085580;28;19916;-63
2022/08/30 06:52:33;;;;;;;;;;;25.90;99.90;;;;;;5083078;28;20304;-64
2022/08/30 06:54:59;;;;;;;;;;;26.00;99.90;;;;;;5113650;28;20029;-63
2022/08/30 06:57:25;;;;;;;;;;;26.20;99.90;;;;;;5096151;28;19912;-63
2022/08/30 06:59:54;;;;;;;;;;;26.00;99.90;;;;;;5095015;28;19912;-63
2022/08/30 07:02:20;;;;;;;;;;;26.60;99.90;;;;;;5070698;28;19919;-63
2022/08/30 07:04:45;;;;;;;;;;;27.10;98.50;;;;;;5102554;28;19908;-64
2022/08/30 07:07:11;;;;;;;;;;;26.90;98.60;;;;;;5094500;28;19913;-64
2022/08/30 07:09:41;;;;;;;;;;;27.60;96.90;;;;;;5097952;28;19920;-63
2022/08/30 07:12:08;;;;;;;;;;;26.90;97.20;;;;;;5066609;28;20325;-63
2022/08/30 07:14:33;;;;;;;;;;;27.30;96.90;;;;;;5098176;28;19919;-64
2022/08/30 07:16:59;;;;;;;;;;;27.70;97.00;;;;;;5099805;28;19915;-63
2022/08/30 07:19:24;;;;;;;;;;;27.90;95.90;;;;;;5101882;28;19957;-63
2022/08/30 07:21:50;;;;;;;;;;;27.90;95.90;;;;;;5094622;28;20366;-63
2022/08/30 07:24:15;;;;;;;;;;;27.50;95.90;;;;;;5078648;28;19919;-64
2022/08/30 07:26:42;;;;;;;;;;;27.20;96.40;;;;;;5085687;28;19965;-63
2022/08/30 07:29:08;;;;;;;;;;;27.10;96.50;;;;;;5098085;28;19920;-63
2022/08/30 07:31:35;;;;;;;;;;;27.20;96.40;;;;;;5095535;28;19908;-64
2022/08/30 07:34:00;;;;;;;;;;;26.90;96.60;;;;;;5094878;28;20259;-63
2022/08/30 07:36:26;;;;;;;;;;;27.00;97.00;;;;;;5094864;28;19923;-63
2022/08/30 07:38:53;;;;;;;;;;;27.70;96.10;;;;;;5072484;28;19916;-63
2022/08/30 07:41:22;;;;;;;;;;;26.70;96.60;;;;;;5085890;28;19959;-64
2022/08/30 07:43:47;;;;;;;;;;;27.60;96.50;;;;;;5094809;28;20282;-65
2022/08/30 07:46:13;;;;;;;;;;;27.70;95.30;;;;;;5068899;28;19918;-64
2022/08/30 07:48:39;;;;;;;;;;;27.90;95.30;;;;;;5081486;28;19916;-64
2022/08/30 07:51:08;;;;;;;;;;;28.20;94.50;;;;;;5084030;28;19955;-62
2022/08/30 07:53:33;;;;;;;;;;;28.60;94.00;;;;;;5094470;28;19911;-64
2022/08/30 07:55:59;;;;;;;;;;;28.20;94.10;;;;;;5086963;28;20396;-64
2022/08/30 07:58:24;;;;;;;;;;;26.90;95.30;;;;;;5086772;28;19954;-65
2022/08/30 08:00:50;;;;;;;;;;;26.40;97.10;;;;;;5094387;28;19935;-63
2022/08/30 08:03:15;;;;;;;;;;;26.80;96.60;;;;;;5088186;28;19951;-63
2022/08/30 08:05:42;;;;;;;;;;;27.20;96.10;;;;;;5086496;28;19912;-64
2022/08/30 08:08:08;;;;;;;;;;;27.40;95.30;;;;;;5091271;28;20374;-64
2022/08/30 08:10:35;;;;;;;;;;;26.90;96.30;;;;;;5083951;28;19912;-64
2022/08/30 08:13:01;;;;;;;;;;;26.40;96.50;;;;;;5095336;28;20294;-64
2022/08/30 08:15:27;;;;;;;;;;;26.60;97.80;;;;;;5083633;28;19928;-63
2022/08/30 08:17:53;;;;;;;;;;;27.10;96.70;;;;;;5088292;28;19942;-64
2022/08/30 08:20:18;;;;;;;;;;;27.60;95.80;;;;;;5088792;28;19912;-63
2022/08/30 08:22:43;;;;;;;;;;;27.90;95.10;;;;;;5092295;28;19946;-64
2022/08/30 08:25:09;;;;;;;;;;;28.20;94.60;;;;;;5091263;28;20464;-64
2022/08/30 08:27:34;;;;;;;;;;;27.70;95.10;;;;;;5085443;28;19940;-64
2022/08/30 08:30:00;;;;;;;;;;;27.00;95.40;;;;;;5088895;28;20003;-63
2022/08/30 08:32:25;;;;;;;;;;;26.60;96.90;;;;;;5091649;28;19919;-63
2022/08/30 08:34:51;;;;;;;;;;;27.00;96.70;;;;;;5088894;28;19916;-64
2022/08/30 08:37:17;;;;;;;;;;;27.00;96.10;;;;;;5085324;28;19916;-62
2022/08/30 08:39:43;;;;;;;;;;;27.00;95.80;;;;;;5094305;28;19951;-63
2022/08/30 08:42:21;;;;;;;;;;;27.30;96.10;;;;;;5066679;28;19980;-63
2022/08/30 08:45:08;;;;;;;;;;;26.70;96.80;;;;;;5089229;28;19916;-63
2022/08/30 08:47:40;;;;;;;;;;;27.80;95.50;;;;;;5085755;28;20023;-63
2022/08/30 08:50:09;;;;;;;;;;;27.60;94.90;;;;;;5090712;28;20296;-62
2022/08/30 08:55:32;;;;;;;;;;;28.60;93.40;;;;;;5075411;28;20007;-63
2022/08/30 08:57:58;;;;;;;;;;;28.30;93.90;;;;;;5085647;28;20010;-64
2022/08/30 09:00:23;;;;;;;;;;;29.00;92.90;;;;;;5088737;28;19912;-64
2022/08/30 09:02:55;;;;;;;;;;;28.90;92.40;;;;;;5092301;28;20370;-64
2022/08/30 09:05:22;;;;;;;;;;;28.40;93.60;;;;;;5091765;28;19916;-66
2022/08/30 09:07:49;;;;;;;;;;;27.80;93.80;;;;;;5089635;28;19912;-64
2022/08/30 09:10:15;;;;;;;;;;;27.90;94.10;;;;;;5087324;28;19999;-64
2022/08/30 09:12:43;;;;;;;;;;;28.20;93.40;;;;;;5086128;28;20011;-64
2022/08/30 09:15:15;;;;;;;;;;;28.40;93.10;;;;;;5086283;28;19921;-62
2022/08/30 09:17:48;;;;;;;;;;;29.00;92.20;;;;;;5085000;28;19962;-64
2022/08/30 09:20:22;;;;;;;;;;;27.10;93.90;;;;;;5061451;28;20416;-64
2022/08/30 09:22:47;;;;;;;;;;;27.90;94.30;;;;;;5089630;28;19963;-63
2022/08/30 09:25:25;;;;;;;;;;;27.60;93.50;;;;;;5090977;28;20377;-63
2022/08/30 09:27:51;;;;;;;;;;;28.00;93.20;;;;;;5072301;28;19938;-63
2022/08/30 09:30:20;;;;;;;;;;;27.80;93.50;;;;;;5090305;28;19920;-63
2022/08/30 09:35:37;;;;;;;;;;;28.10;93.30;;;;;;5055876;28;19928;-64
2022/08/30 09:38:04;;;;;;;;;;;28.40;92.30;;;;;;5055954;28;20373;-64
2022/08/30 09:40:35;;;;;;;;;;;27.70;93.00;;;;;;5057554;28;19920;-64
2022/08/30 09:43:04;;;;;;;;;;;28.00;92.20;;;;;;5054740;28;19952;-64
2022/08/30 09:45:34;;;;;;;;;;;28.60;92.10;;;;;;5054147;28;19909;-64
2022/08/30 09:48:19;;;;;;;;;;;27.90;92.10;;;;;;5033019;28;19920;-64
2022/08/30 09:50:45;;;;;;;;;;;27.90;92.10;;;;;;5046970;28;20437;-64
2022/08/30 09:53:14;;;;;;;;;;;28.00;92.50;;;;;;5045858;28;19920;-64
2022/08/30 09:55:53;;;;;;;;;;;27.90;92.00;;;;;;5054922;28;20364;-64
2022/08/30 09:58:32;;;;;;;;;;;27.60;92.20;;;;;;5044792;28;19913;-62
2022/08/30 10:01:04;;;;;;;;;;;27.80;92.80;;;;;;5047628;28;20367;-64
2022/08/30 10:03:49;;;;;;;;;;;27.90;92.10;;;;;;5047196;28;19913;-63
2022/08/30 10:06:21;;;;;;;;;;;27.70;92.50;;;;;;5046300;28;19924;-64
2022/08/30 10:08:54;;;;;;;;;;;27.90;92.80;;;;;;5044474;28;20279;-66
2022/08/30 10:11:25;;;;;;;;;;;27.90;91.60;;;;;;5035856;28;19913;-63
2022/08/30 10:14:04;;;;;;;;;;;28.10;92.10;;;;;;5043056;28;20337;-64
2022/08/30 10:16:49;;;;;;;;;;;28.00;91.80;;;;;;5046717;28;19913;-64
2022/08/30 10:22:01;;;;;;;;;;;28.50;91.40;;;;;;5087095;27;19916;-63
2022/08/30 10:24:31;;;;;;;;;;;28.70;91.00;;;;;;5068247;28;20439;-63
2022/08/30 10:27:01;;;;;;;;;;;28.40;90.90;;;;;;5062878;28;19963;-63
2022/08/30 10:29:29;;;;;;;;;;;28.50;91.30;;;;;;5068021;28;19912;-63
2022/08/30 10:31:58;;;;;;;;;;;28.30;91.50;;;;;;5062428;28;20436;-64
2022/08/30 10:34:26;;;;;;;;;;;28.40;90.90;;;;;;5059480;28;19967;-62
2022/08/30 10:36:56;;;;;;;;;;;28.80;90.20;;;;;;5060986;28;19913;-64
2022/08/30 10:39:24;;;;;;;;;;;28.40;90.10;;;;;;5064694;28;19913;-63
2022/08/30 10:41:53;;;;;;;;;;;28.20;90.90;;;;;;5055706;28;19923;-64
2022/08/30 10:44:22;;;;;;;;;;;28.10;90.40;;;;;;5059171;28;19939;-64
2022/08/30 10:47:07;;;;;;;;;;;27.90;91.00;;;;;;5070618;28;19917;-62
2022/08/30 10:49:37;;;;;;;;;;;28.00;91.60;;;;;;5054219;28;19935;-63
2022/08/30 10:52:15;;;;;;;;;;;28.00;91.00;;;;;;5072351;28;19912;-63
2022/08/30 10:54:47;;;;;;;;;;;27.90;91.30;;;;;;5060628;28;19912;-63
2022/08/30 10:57:12;;;;;;;;;;;28.40;91.10;;;;;;5094236;28;19909;-63
2022/08/30 10:59:44;;;;;;;;;;;27.30;91.40;;;;;;5068732;28;19935;-62
2022/08/30 11:02:29;;;;;;;;;;;27.20;90.70;;;;;;5069490;28;19958;-63
2022/08/30 11:07:43;;;;;;;;;;;27.30;92.00;;;;;;5069928;28;19939;-63
2022/08/30 11:10:21;;;;;;;;;;;27.20;92.10;;;;;;5059872;28;19924;-63
2022/08/30 11:12:58;;;;;;;;;;;26.70;92.60;;;;;;5041657;28;19913;-63
2022/08/30 11:15:26;;;;;;;;;;;26.90;92.80;;;;;;5040016;28;19959;-62
2022/08/30 11:17:54;;;;;;;;;;;26.90;93.30;;;;;;5050969;28;19909;-62
2022/08/30 11:20:27;;;;;;;;;;;26.70;92.30;;;;;;5045713;28;19913;-62
2022/08/30 11:23:12;;;;;;;;;;;27.00;92.50;;;;;;5037854;28;19915;-62
2022/08/30 11:25:58;;;;;;;;;;;27.30;91.40;;;;;;5043997;28;19923;-61
2022/08/30 11:33:58;;;;;;;;;;;26.70;92.00;;;;;;5050922;28;20392;-63
2022/08/30 11:39:11;;;;;;;;;;;27.30;91.40;;;;;;5048987;28;19917;-64
2022/08/30 11:41:40;;;;;;;;;;;26.90;91.20;;;;;;5049152;28;19913;-64
2022/08/30 11:44:24;;;;;;;;;;;27.20;91.00;;;;;;5053417;28;20367;-65
2022/08/30 11:46:52;;;;;;;;;;;27.00;91.40;;;;;;5057170;28;19952;-64
2022/08/30 11:52:03;;;;;;;;;;;27.60;90.30;;;;;;5070776;28;19917;-64
2022/08/30 11:54:34;;;;;;;;;;;27.00;91.00;;;;;;5064038;28;20251;-64
2022/08/30 11:57:08;;;;;;;;;;;27.10;91.30;;;;;;5063311;28;19966;-64
2022/08/30 11:59:53;;;;;;;;;;;26.50;91.60;;;;;;5053447;28;19912;-64
2022/08/30 12:02:39;;;;;;;;;;;27.30;92.20;;;;;;5064640;28;19917;-64
2022/08/30 12:05:04;;;;;;;;;;;27.50;90.70;;;;;;5068107;28;19923;-64
2022/08/30 12:07:50;;;;;;;;;;;27.50;91.00;;;;;;5071888;28;19912;-65
2022/08/30 12:10:22;;;;;;;;;;;27.10;90.70;;;;;;5070151;28;19916;-64
2022/08/30 12:12:49;;;;;;;;;;;26.90;90.70;;;;;;5073517;28;19912;-65
2022/08/30 12:15:34;;;;;;;;;;;26.90;91.00;;;;;;5066961;28;19913;-64
2022/08/30 12:18:32;;;;;;;;;;;26.60;91.30;;;;;;5061841;28;20019;-64
2022/08/30 12:20:47;;;;;;;;;;;26.80;91.70;;;;;;5059652;28;20315;-65
2022/08/30 12:23:18;;;;;;;;;;;26.40;91.80;;;;;;5068638;28;20387;-64
2022/08/30 12:25:44;;;;;;;;;;;26.60;92.10;;;;;;5071621;28;20310;-66
2022/08/30 12:28:14;;;;;;;;;;;26.70;91.30;;;;;;5079019;28;19913;-65
2022/08/30 12:30:40;;;;;;;;;;;26.80;91.20;;;;;;5067630;28;19928;-64
2022/08/30 12:33:11;;;;;;;;;;;26.50;91.40;;;;;;5070515;28;19956;-66
2022/08/30 12:35:38;;;;;;;;;;;26.20;91.80;;;;;;5065634;28;19916;-65
2022/08/30 12:38:04;;;;;;;;;;;26.20;91.80;;;;;;5067503;28;19917;-65
2022/08/30 12:40:30;;;;;;;;;;;26.30;91.20;;;;;;5052037;28;20287;-64
2022/08/30 12:42:59;;;;;;;;;;;26.30;91.50;;;;;;5057732;28;20551;-65
2022/08/30 12:45:26;;;;;;;;;;;26.60;91.20;;;;;;5064421;28;19936;-65
2022/08/30 12:47:55;;;;;;;;;;;26.60;91.30;;;;;;5057734;28;19919;-62
2022/08/30 12:50:23;;;;;;;;;;;26.40;91.30;;;;;;5074420;28;19920;-64
2022/08/30 12:53:06;;;;;;;;;;;26.20;91.40;;;;;;5074874;28;19975;-64
2022/08/30 12:55:34;;;;;;;;;;;26.40;91.20;;;;;;5076722;28;20284;-64
2022/08/30 12:58:02;;;;;;;;;;;26.30;91.00;;;;;;5099580;28;20408;-64
2022/08/30 13:00:30;;;;;;;;;;;26.30;91.10;;;;;;5094154;28;19962;-64
2022/08/30 13:02:56;;;;;;;;;;;26.10;91.20;;;;;;5084641;28;19947;-64
2022/08/30 13:05:28;;;;;;;;;;;26.10;91.00;;;;;;5073261;28;20392;-63
2022/08/30 13:08:07;;;;;;;;;;;25.90;91.00;;;;;;5076814;28;19912;-65
2022/08/30 13:10:32;;;;;;;;;;;26.10;90.60;;;;;;5070601;28;20359;-64
2022/08/30 13:12:59;;;;;;;;;;;26.60;90.60;;;;;;5074354;28;19919;-64
2022/08/30 13:15:27;;;;;;;;;;;26.70;90.40;;;;;;5067980;28;19939;-64
2022/08/30 13:18:13;;;;;;;;;;;26.50;90.20;;;;;;5079459;28;19919;-64
2022/08/30 13:20:38;;;;;;;;;;;26.50;90.10;;;;;;5067358;28;19967;-64
2022/08/30 13:23:06;;;;;;;;;;;26.30;90.60;;;;;;5075002;28;19909;-64
2022/08/30 13:25:33;;;;;;;;;;;26.30;90.60;;;;;;5063663;28;20394;-63
2022/08/30 13:27:59;;;;;;;;;;;26.30;90.40;;;;;;5068201;28;19912;-64
2022/08/30 13:30:24;;;;;;;;;;;26.40;90.00;;;;;;5086839;28;19920;-63
2022/08/30 13:32:50;;;;;;;;;;;26.40;90.10;;;;;;5079205;28;19956;-63
2022/08/30 13:35:15;;;;;;;;;;;26.30;89.80;;;;;;5073028;28;19920;-64
2022/08/30 13:37:41;;;;;;;;;;;26.20;90.60;;;;;;5070348;28;19916;-64
2022/08/30 13:40:08;;;;;;;;;;;26.30;90.20;;;;;;5075334;28;20454;-64
2022/08/30 13:42:33;;;;;;;;;;;26.30;90.80;;;;;;5073282;28;19990;-63
2022/08/30 13:44:59;;;;;;;;;;;26.30;91.20;;;;;;5091557;28;19995;-63
2022/08/30 13:47:24;;;;;;;;;;;26.20;91.60;;;;;;5081443;28;19912;-63
2022/08/30 13:49:50;;;;;;;;;;;26.20;90.70;;;;;;5087662;28;19924;-65
2022/08/30 13:52:17;;;;;;;;;;;25.90;90.80;;;;;;5073568;28;19913;-64
2022/08/30 13:54:45;;;;;;;;;;;25.90;91.30;;;;;;5051264;28;19924;-64
2022/08/30 13:57:10;;;;;;;;;;;25.80;91.30;;;;;;5069220;28;19912;-64
2022/08/30 13:59:36;;;;;;;;;;;25.60;91.50;;;;;;5086931;28;19912;-65
2022/08/30 14:02:01;;;;;;;;;;;25.90;91.50;;;;;;5078748;28;19912;-64
2022/08/30 14:04:27;;;;;;;;;;;26.20;91.60;;;;;;5091711;28;19912;-64
2022/08/30 14:06:53;;;;;;;;;;;26.30;90.60;;;;;;5065450;28;20374;-63
2022/08/30 14:09:18;;;;;;;;;;;26.20;90.80;;;;;;5087654;28;20398;-64
2022/08/30 14:11:44;;;;;;;;;;;26.20;90.70;;;;;;5078735;28;19919;-64
2022/08/30 14:14:10;;;;;;;;;;;26.40;90.50;;;;;;5075898;28;19912;-64
2022/08/30 14:16:37;;;;;;;;;;;26.50;89.30;;;;;;5036111;28;20000;-64
2022/08/30 14:19:03;;;;;;;;;;;26.40;90.50;;;;;;5094541;28;19999;-64
2022/08/30 14:21:28;;;;;;;;;;;26.40;90.50;;;;;;5070098;28;19917;-64
2022/08/30 14:23:55;;;;;;;;;;;26.40;90.30;;;;;;5085036;28;20431;-64
2022/08/30 14:26:22;;;;;;;;;;;26.40;89.10;;;;;;5073585;28;20363;-63
2022/08/30 14:28:48;;;;;;;;;;;26.20;89.20;;;;;;5074908;28;19917;-63
2022/08/30 14:31:18;;;;;;;;;;;26.30;90.00;;;;;;5059936;28;19912;-63
2022/08/30 14:33:44;;;;;;;;;;;26.20;89.80;;;;;;5054746;28;19916;-63
2022/08/30 14:36:11;;;;;;;;;;;26.00;88.90;;;;;;5064803;28;19908;-63
2022/08/30 14:38:36;;;;;;;;;;;25.60;89.60;;;;;;5059347;28;19994;-63
2022/08/30 14:41:03;;;;;;;;;;;26.00;90.20;;;;;;5058229;28;19920;-63
2022/08/30 14:43:28;;;;;;;;;;;26.20;89.50;;;;;;5057491;28;19965;-64
2022/08/30 14:45:56;;;;;;;;;;;26.10;89.90;;;;;;5052831;28;19917;-64